sensor_id;sensor_type;location;lat;lon;timestamp;temperature;humidity
71879;DHT22;59755;43.834;4.364;2022-09-12T00:00:13;21.10;55.30
71879;DHT22;59755;43.834;4.364;2022-09-12T00:02:40;21.00;55.50
71879;DHT22;59755;43.834;4.364;2022-09-12T00:05:06;20.90;55.80
71879;DHT22;59755;43.834;4.364;2022-09-12T00:07:32;20.90;55.70
71879;DHT22;59755;43.834;4.364;2022-09-12T00:09:58;21.00;55.50
71879;DHT22;59755;43.834;4.364;2022-09-12T00:12:24;21.00;55.70
71879;DHT22;59755;43.834;4.364;2022-09-12T00:14:50;21.00;55.60
71879;DHT22;59755;43.834;4.364;2022-09-12T00:17:15;20.90;55.90
71879;DHT22;59755;43.834;4.364;2022-09-12T00:19:41;20.90;56.10
71879;DHT22;59755;43.834;4.364;2022-09-12T00:22:07;20.80;55.90
71879;DHT22;59755;43.834;4.364;2022-09-12T00:24:32;20.80;56.10
71879;DHT22;59755;43.834;4.364;2022-09-12T00:26:58;20.80;56.40
71879;DHT22;59755;43.834;4.364;2022-09-12T00:29:24;20.80;56.00
71879;DHT22;59755;43.834;4.364;2022-09-12T00:31:50;20.80;56.00
71879;DHT22;59755;43.834;4.364;2022-09-12T00:34:16;20.80;56.10
71879;DHT22;59755;43.834;4.364;2022-09-12T00:36:41;20.80;56.50
71879;DHT22;59755;43.834;4.364;2022-09-12T00:39:14;20.80;56.30
71879;DHT22;59755;43.834;4.364;2022-09-12T00:41:41;20.80;56.30
71879;DHT22;59755;43.834;4.364;2022-09-12T00:47:13;20.70;56.50
71879;DHT22;59755;43.834;4.364;2022-09-12T00:54:37;20.50;56.70
71879;DHT22;59755;43.834;4.364;2022-09-12T00:57:07;20.50;56.60
71879;DHT22;59755;43.834;4.364;2022-09-12T00:59:42;20.60;56.10
71879;DHT22;59755;43.834;4.364;2022-09-12T01:02:10;20.70;56.00
71879;DHT22;59755;43.834;4.364;2022-09-12T01:04:38;20.70;55.90
71879;DHT22;59755;43.834;4.364;2022-09-12T01:07:05;20.50;56.60
71879;DHT22;59755;43.834;4.364;2022-09-12T01:09:32;20.30;57.20
71879;DHT22;59755;43.834;4.364;2022-09-12T01:11:59;20.20;57.60
71879;DHT22;59755;43.834;4.364;2022-09-12T01:14:26;20.20;57.60
71879;DHT22;59755;43.834;4.364;2022-09-12T01:16:52;20.30;57.20
71879;DHT22;59755;43.834;4.364;2022-09-12T01:24:32;20.30;57.40
71879;DHT22;59755;43.834;4.364;2022-09-12T01:40:45;20.20;58.00
71879;DHT22;59755;43.834;4.364;2022-09-12T01:43:34;20.30;57.10
71879;DHT22;59755;43.834;4.364;2022-09-12T01:48:49;20.40;55.30
71879;DHT22;59755;43.834;4.364;2022-09-12T01:51:43;20.30;56.00
71879;DHT22;59755;43.834;4.364;2022-09-12T01:54:17;20.30;56.10
71879;DHT22;59755;43.834;4.364;2022-09-12T01:56:47;20.20;56.40
71879;DHT22;59755;43.834;4.364;2022-09-12T02:02:07;20.30;55.80
71879;DHT22;59755;43.834;4.364;2022-09-12T02:04:39;20.30;55.70
71879;DHT22;59755;43.834;4.364;2022-09-12T02:07:46;20.30;55.30
71879;DHT22;59755;43.834;4.364;2022-09-12T02:10:21;20.30;55.60
71879;DHT22;59755;43.834;4.364;2022-09-12T02:15:42;20.10;56.20
71879;DHT22;59755;43.834;4.364;2022-09-12T02:18:13;20.10;56.30
71879;DHT22;59755;43.834;4.364;2022-09-12T02:20:41;20.20;56.20
71879;DHT22;59755;43.834;4.364;2022-09-12T02:23:13;20.30;56.00
71879;DHT22;59755;43.834;4.364;2022-09-12T02:25:43;20.20;56.40
71879;DHT22;59755;43.834;4.364;2022-09-12T02:28:21;20.10;56.80
71879;DHT22;59755;43.834;4.364;2022-09-12T02:31:18;20.00;57.00
71879;DHT22;59755;43.834;4.364;2022-09-12T02:38:48;20.10;57.20
71879;DHT22;59755;43.834;4.364;2022-09-12T02:41:17;20.20;56.60
71879;DHT22;59755;43.834;4.364;2022-09-12T02:43:44;20.20;56.60
71879;DHT22;59755;43.834;4.364;2022-09-12T02:46:35;20.20;56.70
71879;DHT22;59755;43.834;4.364;2022-09-12T02:49:02;20.10;57.00
71879;DHT22;59755;43.834;4.364;2022-09-12T02:51:28;20.20;56.80
71879;DHT22;59755;43.834;4.364;2022-09-12T02:53:54;20.20;56.80
71879;DHT22;59755;43.834;4.364;2022-09-12T02:56:26;20.10;57.00
71879;DHT22;59755;43.834;4.364;2022-09-12T02:58:54;20.10;57.10
71879;DHT22;59755;43.834;4.364;2022-09-12T03:04:23;20.00;57.70
71879;DHT22;59755;43.834;4.364;2022-09-12T03:24:26;19.70;59.10
71879;DHT22;59755;43.834;4.364;2022-09-12T03:29:27;19.70;59.30
71879;DHT22;59755;43.834;4.364;2022-09-12T03:31:56;19.70;59.10
71879;DHT22;59755;43.834;4.364;2022-09-12T03:34:23;19.80;58.80
71879;DHT22;59755;43.834;4.364;2022-09-12T03:36:50;19.80;58.50
71879;DHT22;59755;43.834;4.364;2022-09-12T03:39:15;19.70;58.90
71879;DHT22;59755;43.834;4.364;2022-09-12T03:41:42;19.60;59.80
71879;DHT22;59755;43.834;4.364;2022-09-12T03:44:07;19.40;60.30
71879;DHT22;59755;43.834;4.364;2022-09-12T03:46:34;19.40;60.70
71879;DHT22;59755;43.834;4.364;2022-09-12T03:48:59;19.40;60.70
71879;DHT22;59755;43.834;4.364;2022-09-12T03:51:25;19.40;60.70
71879;DHT22;59755;43.834;4.364;2022-09-12T03:53:51;19.40;60.50
71879;DHT22;59755;43.834;4.364;2022-09-12T03:56:16;19.50;59.60
71879;DHT22;59755;43.834;4.364;2022-09-12T03:58:44;19.50;58.90
71879;DHT22;59755;43.834;4.364;2022-09-12T04:01:15;19.50;59.10
71879;DHT22;59755;43.834;4.364;2022-09-12T04:03:42;19.50;58.70
71879;DHT22;59755;43.834;4.364;2022-09-12T04:06:10;19.50;58.90
71879;DHT22;59755;43.834;4.364;2022-09-12T04:08:36;19.40;59.10
71879;DHT22;59755;43.834;4.364;2022-09-12T04:11:12;19.40;59.30
71879;DHT22;59755;43.834;4.364;2022-09-12T04:13:40;19.40;59.60
71879;DHT22;59755;43.834;4.364;2022-09-12T04:16:06;19.30;59.70
71879;DHT22;59755;43.834;4.364;2022-09-12T04:18:33;19.40;59.70
71879;DHT22;59755;43.834;4.364;2022-09-12T04:21:04;19.40;59.00
71879;DHT22;59755;43.834;4.364;2022-09-12T04:23:30;19.40;58.90
71879;DHT22;59755;43.834;4.364;2022-09-12T04:25:57;19.50;58.90
71879;DHT22;59755;43.834;4.364;2022-09-12T04:28:23;19.50;59.00
71879;DHT22;59755;43.834;4.364;2022-09-12T04:30:49;19.50;59.20
71879;DHT22;59755;43.834;4.364;2022-09-12T04:33:15;19.30;59.90
71879;DHT22;59755;43.834;4.364;2022-09-12T04:35:41;19.20;60.40
71879;DHT22;59755;43.834;4.364;2022-09-12T04:38:07;19.30;60.10
71879;DHT22;59755;43.834;4.364;2022-09-12T04:40:34;19.50;59.60
71879;DHT22;59755;43.834;4.364;2022-09-12T04:42:59;19.50;59.00
71879;DHT22;59755;43.834;4.364;2022-09-12T04:45:25;19.50;59.30
71879;DHT22;59755;43.834;4.364;2022-09-12T04:47:51;19.50;59.40
71879;DHT22;59755;43.834;4.364;2022-09-12T04:50:17;19.50;59.30
71879;DHT22;59755;43.834;4.364;2022-09-12T04:52:48;19.40;59.70
71879;DHT22;59755;43.834;4.364;2022-09-12T04:55:13;19.20;60.30
71879;DHT22;59755;43.834;4.364;2022-09-12T04:57:39;19.30;60.20
71879;DHT22;59755;43.834;4.364;2022-09-12T05:00:05;19.20;60.50
71879;DHT22;59755;43.834;4.364;2022-09-12T05:02:33;19.30;60.30
71879;DHT22;59755;43.834;4.364;2022-09-12T05:04:59;19.30;60.00
71879;DHT22;59755;43.834;4.364;2022-09-12T05:07:25;19.40;59.30
71879;DHT22;59755;43.834;4.364;2022-09-12T05:09:50;19.30;59.10
71879;DHT22;59755;43.834;4.364;2022-09-12T05:12:16;19.40;58.90
71879;DHT22;59755;43.834;4.364;2022-09-12T05:14:42;19.40;58.90
71879;DHT22;59755;43.834;4.364;2022-09-12T05:17:07;19.30;58.70
71879;DHT22;59755;43.834;4.364;2022-09-12T05:19:33;19.30;58.70
71879;DHT22;59755;43.834;4.364;2022-09-12T05:21:59;19.20;59.20
71879;DHT22;59755;43.834;4.364;2022-09-12T05:24:25;19.20;59.60
71879;DHT22;59755;43.834;4.364;2022-09-12T05:26:51;19.20;59.50
71879;DHT22;59755;43.834;4.364;2022-09-12T05:29:16;19.30;59.00
71879;DHT22;59755;43.834;4.364;2022-09-12T05:31:42;19.30;59.30
71879;DHT22;59755;43.834;4.364;2022-09-12T05:34:08;19.40;58.70
71879;DHT22;59755;43.834;4.364;2022-09-12T05:36:35;19.40;58.40
71879;DHT22;59755;43.834;4.364;2022-09-12T05:39:04;19.40;58.50
71879;DHT22;59755;43.834;4.364;2022-09-12T05:41:31;19.50;58.10
71879;DHT22;59755;43.834;4.364;2022-09-12T05:44:00;19.60;57.80
71879;DHT22;59755;43.834;4.364;2022-09-12T05:46:28;19.60;57.80
71879;DHT22;59755;43.834;4.364;2022-09-12T05:48:55;19.60;57.60
71879;DHT22;59755;43.834;4.364;2022-09-12T05:51:27;19.70;57.70
71879;DHT22;59755;43.834;4.364;2022-09-12T05:53:55;19.80;57.30
71879;DHT22;59755;43.834;4.364;2022-09-12T05:56:26;19.80;57.40
71879;DHT22;59755;43.834;4.364;2022-09-12T05:58:54;19.80;57.70
71879;DHT22;59755;43.834;4.364;2022-09-12T06:01:21;19.80;57.80
71879;DHT22;59755;43.834;4.364;2022-09-12T06:03:49;19.90;58.00
71879;DHT22;59755;43.834;4.364;2022-09-12T06:06:17;19.90;57.80
71879;DHT22;59755;43.834;4.364;2022-09-12T06:08:46;19.90;58.10
71879;DHT22;59755;43.834;4.364;2022-09-12T06:11:15;19.80;58.50
71879;DHT22;59755;43.834;4.364;2022-09-12T06:13:42;19.80;58.80
71879;DHT22;59755;43.834;4.364;2022-09-12T06:16:18;19.80;58.90
71879;DHT22;59755;43.834;4.364;2022-09-12T06:18:49;20.00;58.50
71879;DHT22;59755;43.834;4.364;2022-09-12T06:21:15;20.30;58.30
71879;DHT22;59755;43.834;4.364;2022-09-12T06:23:41;20.40;58.40
71879;DHT22;59755;43.834;4.364;2022-09-12T06:26:09;20.60;57.60
71879;DHT22;59755;43.834;4.364;2022-09-12T06:28:37;20.80;57.30
71879;DHT22;59755;43.834;4.364;2022-09-12T06:31:08;20.90;56.70
71879;DHT22;59755;43.834;4.364;2022-09-12T06:33:37;21.00;57.10
71879;DHT22;59755;43.834;4.364;2022-09-12T06:36:08;21.10;55.80
71879;DHT22;59755;43.834;4.364;2022-09-12T06:38:34;21.10;56.40
71879;DHT22;59755;43.834;4.364;2022-09-12T06:41:03;21.30;55.70
71879;DHT22;59755;43.834;4.364;2022-09-12T06:43:30;21.10;56.50
71879;DHT22;59755;43.834;4.364;2022-09-12T06:45:56;21.20;56.20
71879;DHT22;59755;43.834;4.364;2022-09-12T06:48:22;21.10;56.20
71879;DHT22;59755;43.834;4.364;2022-09-12T06:50:59;21.30;56.20
71879;DHT22;59755;43.834;4.364;2022-09-12T06:53:26;21.40;55.90
71879;DHT22;59755;43.834;4.364;2022-09-12T06:56:03;21.50;55.70
71879;DHT22;59755;43.834;4.364;2022-09-12T06:58:31;21.50;55.50
71879;DHT22;59755;43.834;4.364;2022-09-12T07:03:30;21.60;55.40
71879;DHT22;59755;43.834;4.364;2022-09-12T07:06:00;21.60;54.90
71879;DHT22;59755;43.834;4.364;2022-09-12T07:08:26;21.60;55.30
71879;DHT22;59755;43.834;4.364;2022-09-12T07:10:55;21.60;55.80
71879;DHT22;59755;43.834;4.364;2022-09-12T07:13:23;21.50;55.90
71879;DHT22;59755;43.834;4.364;2022-09-12T07:15:49;21.50;55.90
71879;DHT22;59755;43.834;4.364;2022-09-12T07:18:16;21.50;55.40
71879;DHT22;59755;43.834;4.364;2022-09-12T07:20:42;21.60;55.50
71879;DHT22;59755;43.834;4.364;2022-09-12T07:23:08;21.70;55.70
71879;DHT22;59755;43.834;4.364;2022-09-12T07:25:34;21.60;55.80
71879;DHT22;59755;43.834;4.364;2022-09-12T07:27:59;21.60;56.90
71879;DHT22;59755;43.834;4.364;2022-09-12T07:30:25;21.80;56.20
71879;DHT22;59755;43.834;4.364;2022-09-12T07:32:54;21.60;55.80
71879;DHT22;59755;43.834;4.364;2022-09-12T07:35:20;21.70;56.00
71879;DHT22;59755;43.834;4.364;2022-09-12T07:37:45;21.90;55.90
71879;DHT22;59755;43.834;4.364;2022-09-12T07:40:11;21.80;56.00
71879;DHT22;59755;43.834;4.364;2022-09-12T07:42:37;21.70;56.50
71879;DHT22;59755;43.834;4.364;2022-09-12T07:45:03;21.70;57.40
71879;DHT22;59755;43.834;4.364;2022-09-12T07:47:29;21.90;56.70
71879;DHT22;59755;43.834;4.364;2022-09-12T07:49:54;22.00;56.20
71879;DHT22;59755;43.834;4.364;2022-09-12T07:52:21;22.10;55.50
71879;DHT22;59755;43.834;4.364;2022-09-12T07:54:46;22.20;55.30
71879;DHT22;59755;43.834;4.364;2022-09-12T07:57:12;22.40;55.90
71879;DHT22;59755;43.834;4.364;2022-09-12T07:59:37;22.60;55.70
71879;DHT22;59755;43.834;4.364;2022-09-12T08:02:10;22.70;54.80
71879;DHT22;59755;43.834;4.364;2022-09-12T08:04:38;22.80;54.60
71879;DHT22;59755;43.834;4.364;2022-09-12T08:07:04;22.80;54.40
71879;DHT22;59755;43.834;4.364;2022-09-12T08:09:31;22.80;54.80
71879;DHT22;59755;43.834;4.364;2022-09-12T08:11:56;22.80;54.40
71879;DHT22;59755;43.834;4.364;2022-09-12T08:14:22;22.80;54.60
71879;DHT22;59755;43.834;4.364;2022-09-12T08:16:48;22.80;54.60
71879;DHT22;59755;43.834;4.364;2022-09-12T08:19:13;22.70;54.80
71879;DHT22;59755;43.834;4.364;2022-09-12T08:21:39;22.70;55.00
71879;DHT22;59755;43.834;4.364;2022-09-12T08:24:05;22.80;54.40
71879;DHT22;59755;43.834;4.364;2022-09-12T08:26:32;23.00;53.80
71879;DHT22;59755;43.834;4.364;2022-09-12T08:28:58;23.00;53.90
71879;DHT22;59755;43.834;4.364;2022-09-12T08:31:25;23.10;53.90
71879;DHT22;59755;43.834;4.364;2022-09-12T08:33:53;23.10;53.20
71879;DHT22;59755;43.834;4.364;2022-09-12T08:36:22;23.20;53.30
71879;DHT22;59755;43.834;4.364;2022-09-12T08:38:50;23.30;53.00
71879;DHT22;59755;43.834;4.364;2022-09-12T08:44:49;23.50;52.20
71879;DHT22;59755;43.834;4.364;2022-09-12T08:47:33;23.60;52.40
71879;DHT22;59755;43.834;4.364;2022-09-12T08:52:57;23.70;51.90
71879;DHT22;59755;43.834;4.364;2022-09-12T08:55:36;23.90;52.00
71879;DHT22;59755;43.834;4.364;2022-09-12T08:58:22;24.10;51.30
71879;DHT22;59755;43.834;4.364;2022-09-12T09:12:58;24.30;50.50
71879;DHT22;59755;43.834;4.364;2022-09-12T09:18:10;24.40;50.80
71879;DHT22;59755;43.834;4.364;2022-09-12T09:20:42;24.20;51.50
71879;DHT22;59755;43.834;4.364;2022-09-12T09:23:28;24.50;50.80
71879;DHT22;59755;43.834;4.364;2022-09-12T09:25:57;24.50;50.50
71879;DHT22;59755;43.834;4.364;2022-09-12T09:31:21;24.80;50.80
71879;DHT22;59755;43.834;4.364;2022-09-12T09:33:49;25.00;50.30
71879;DHT22;59755;43.834;4.364;2022-09-12T09:44:53;25.20;50.10
71879;DHT22;59755;43.834;4.364;2022-09-12T09:47:20;25.40;50.10
71879;DHT22;59755;43.834;4.364;2022-09-12T09:49:46;25.50;50.20
71879;DHT22;59755;43.834;4.364;2022-09-12T09:52:15;25.60;49.70
71879;DHT22;59755;43.834;4.364;2022-09-12T09:55:11;25.80;49.30
71879;DHT22;59755;43.834;4.364;2022-09-12T09:57:41;26.10;49.10
71879;DHT22;59755;43.834;4.364;2022-09-12T10:03:02;26.20;49.40
71879;DHT22;59755;43.834;4.364;2022-09-12T10:05:31;26.50;49.30
71879;DHT22;59755;43.834;4.364;2022-09-12T10:07:58;26.70;49.00
71879;DHT22;59755;43.834;4.364;2022-09-12T10:10:24;26.70;49.20
71879;DHT22;59755;43.834;4.364;2022-09-12T10:12:50;26.70;49.30
71879;DHT22;59755;43.834;4.364;2022-09-12T10:15:17;26.70;49.40
71879;DHT22;59755;43.834;4.364;2022-09-12T10:17:45;26.70;49.40
71879;DHT22;59755;43.834;4.364;2022-09-12T10:20:42;27.10;48.80
71879;DHT22;59755;43.834;4.364;2022-09-12T10:25:55;27.60;47.20
71879;DHT22;59755;43.834;4.364;2022-09-12T10:28:34;27.60;47.40
71879;DHT22;59755;43.834;4.364;2022-09-12T10:31:02;27.50;48.30
71879;DHT22;59755;43.834;4.364;2022-09-12T10:33:28;27.90;47.90
71879;DHT22;59755;43.834;4.364;2022-09-12T10:35:55;28.10;46.50
71879;DHT22;59755;43.834;4.364;2022-09-12T10:38:26;28.00;47.20
71879;DHT22;59755;43.834;4.364;2022-09-12T10:41:07;28.80;45.80
71879;DHT22;59755;43.834;4.364;2022-09-12T10:43:37;30.20;43.70
71879;DHT22;59755;43.834;4.364;2022-09-12T10:48:43;30.70;42.20
71879;DHT22;59755;43.834;4.364;2022-09-12T10:53:56;30.80;41.50
71879;DHT22;59755;43.834;4.364;2022-09-12T10:56:29;31.50;40.40
71879;DHT22;59755;43.834;4.364;2022-09-12T11:02:26;32.40;37.60
71879;DHT22;59755;43.834;4.364;2022-09-12T11:05:00;31.10;39.80
71879;DHT22;59755;43.834;4.364;2022-09-12T11:07:44;30.30;41.60
71879;DHT22;59755;43.834;4.364;2022-09-12T11:21:46;28.80;44.70
71879;DHT22;59755;43.834;4.364;2022-09-12T11:30:03;28.10;45.80
71879;DHT22;59755;43.834;4.364;2022-09-12T11:40:57;28.70;44.50
71879;DHT22;59755;43.834;4.364;2022-09-12T11:43:37;28.60;44.20
71879;DHT22;59755;43.834;4.364;2022-09-12T11:51:52;28.10;46.10
71879;DHT22;59755;43.834;4.364;2022-09-12T12:08:08;27.80;48.70
71879;DHT22;59755;43.834;4.364;2022-09-12T12:10:43;27.70;49.30
71879;DHT22;59755;43.834;4.364;2022-09-12T12:13:24;27.40;50.00
71879;DHT22;59755;43.834;4.364;2022-09-12T12:15:57;27.30;51.10
71879;DHT22;59755;43.834;4.364;2022-09-12T12:18:28;27.10;51.80
71879;DHT22;59755;43.834;4.364;2022-09-12T12:20:56;27.20;52.10
71879;DHT22;59755;43.834;4.364;2022-09-12T12:24:02;27.30;52.10
71879;DHT22;59755;43.834;4.364;2022-09-12T12:34:33;27.60;52.30
71879;DHT22;59755;43.834;4.364;2022-09-12T12:52:52;28.20;51.80
71879;DHT22;59755;43.834;4.364;2022-09-12T12:55:31;28.10;52.10
71879;DHT22;59755;43.834;4.364;2022-09-12T12:58:01;28.10;52.30
71879;DHT22;59755;43.834;4.364;2022-09-12T13:00:35;28.20;51.10
71879;DHT22;59755;43.834;4.364;2022-09-12T13:05:49;27.90;51.70
71879;DHT22;59755;43.834;4.364;2022-09-12T13:13:31;27.70;51.10
71879;DHT22;59755;43.834;4.364;2022-09-12T13:15:58;27.60;51.40
71879;DHT22;59755;43.834;4.364;2022-09-12T13:18:40;27.60;51.40
71879;DHT22;59755;43.834;4.364;2022-09-12T13:21:15;27.80;51.20
71879;DHT22;59755;43.834;4.364;2022-09-12T13:23:43;27.90;50.80
71879;DHT22;59755;43.834;4.364;2022-09-12T13:26:12;27.80;51.20
71879;DHT22;59755;43.834;4.364;2022-09-12T13:28:38;27.60;51.40
71879;DHT22;59755;43.834;4.364;2022-09-12T13:31:19;27.60;51.50
71879;DHT22;59755;43.834;4.364;2022-09-12T13:44:26;27.60;52.20
71879;DHT22;59755;43.834;4.364;2022-09-12T13:46:52;27.60;52.60
71879;DHT22;59755;43.834;4.364;2022-09-12T13:49:34;27.40;53.30
71879;DHT22;59755;43.834;4.364;2022-09-12T13:52:04;27.50;53.40
71879;DHT22;59755;43.834;4.364;2022-09-12T13:54:32;27.70;53.20
71879;DHT22;59755;43.834;4.364;2022-09-12T13:56:58;27.80;53.10
71879;DHT22;59755;43.834;4.364;2022-09-12T13:59:24;28.00;52.80
71879;DHT22;59755;43.834;4.364;2022-09-12T14:01:50;28.00;53.10
71879;DHT22;59755;43.834;4.364;2022-09-12T14:04:20;28.10;53.40
71879;DHT22;59755;43.834;4.364;2022-09-12T14:09:44;28.00;53.10
71879;DHT22;59755;43.834;4.364;2022-09-12T14:12:36;28.20;52.90
71879;DHT22;59755;43.834;4.364;2022-09-12T14:15:05;29.20;50.80
71879;DHT22;59755;43.834;4.364;2022-09-12T14:17:37;30.20;48.60
71879;DHT22;59755;43.834;4.364;2022-09-12T14:20:11;29.80;49.40
71879;DHT22;59755;43.834;4.364;2022-09-12T14:22:38;29.30;50.80
71879;DHT22;59755;43.834;4.364;2022-09-12T14:25:12;29.30;51.20
71879;DHT22;59755;43.834;4.364;2022-09-12T14:27:42;30.20;49.40
71879;DHT22;59755;43.834;4.364;2022-09-12T14:30:30;30.90;47.60
71879;DHT22;59755;43.834;4.364;2022-09-12T14:35:35;31.20;47.50
71879;DHT22;59755;43.834;4.364;2022-09-12T14:40:57;31.20;47.80
71879;DHT22;59755;43.834;4.364;2022-09-12T14:45:57;31.90;47.20
71879;DHT22;59755;43.834;4.364;2022-09-12T14:48:29;32.00;47.70
71879;DHT22;59755;43.834;4.364;2022-09-12T14:50:56;31.90;47.60
71879;DHT22;59755;43.834;4.364;2022-09-12T14:53:35;30.80;50.90
71879;DHT22;59755;43.834;4.364;2022-09-12T14:56:08;30.10;53.40
71879;DHT22;59755;43.834;4.364;2022-09-12T14:58:34;29.80;53.60
71879;DHT22;59755;43.834;4.364;2022-09-12T15:06:05;28.40;57.20
71879;DHT22;59755;43.834;4.364;2022-09-12T15:08:43;28.00;57.90
71879;DHT22;59755;43.834;4.364;2022-09-12T15:11:09;27.90;58.30
71879;DHT22;59755;43.834;4.364;2022-09-12T15:13:39;27.90;58.40
71879;DHT22;59755;43.834;4.364;2022-09-12T15:16:09;27.70;58.60
71879;DHT22;59755;43.834;4.364;2022-09-12T15:18:36;27.60;59.40
71879;DHT22;59755;43.834;4.364;2022-09-12T15:21:04;27.60;59.30
71879;DHT22;59755;43.834;4.364;2022-09-12T15:26:08;27.60;59.20
71879;DHT22;59755;43.834;4.364;2022-09-12T15:28:34;27.40;60.50
71879;DHT22;59755;43.834;4.364;2022-09-12T15:34:03;27.50;60.70
71879;DHT22;59755;43.834;4.364;2022-09-12T15:36:29;27.50;60.50
71879;DHT22;59755;43.834;4.364;2022-09-12T15:38:55;27.50;60.80
71879;DHT22;59755;43.834;4.364;2022-09-12T15:41:40;27.50;61.20
71879;DHT22;59755;43.834;4.364;2022-09-12T15:44:09;27.60;60.70
71879;DHT22;59755;43.834;4.364;2022-09-12T15:46:35;27.70;60.40
71879;DHT22;59755;43.834;4.364;2022-09-12T15:49:01;27.80;60.40
71879;DHT22;59755;43.834;4.364;2022-09-12T15:51:27;27.70;60.30
71879;DHT22;59755;43.834;4.364;2022-09-12T15:53:53;27.60;60.30
71879;DHT22;59755;43.834;4.364;2022-09-12T15:56:20;27.50;60.80
71879;DHT22;59755;43.834;4.364;2022-09-12T15:58:47;27.30;61.10
71879;DHT22;59755;43.834;4.364;2022-09-12T16:01:14;27.30;61.20
71879;DHT22;59755;43.834;4.364;2022-09-12T16:03:41;27.30;61.40
71879;DHT22;59755;43.834;4.364;2022-09-12T16:06:07;27.30;61.40
71879;DHT22;59755;43.834;4.364;2022-09-12T16:08:35;27.20;62.30
71879;DHT22;59755;43.834;4.364;2022-09-12T16:11:03;27.20;62.30
71879;DHT22;59755;43.834;4.364;2022-09-12T16:13:31;27.20;62.70
71879;DHT22;59755;43.834;4.364;2022-09-12T16:15:58;27.20;62.80
71879;DHT22;59755;43.834;4.364;2022-09-12T16:18:24;27.10;63.10
71879;DHT22;59755;43.834;4.364;2022-09-12T16:20:53;27.10;63.20
71879;DHT22;59755;43.834;4.364;2022-09-12T16:23:20;26.90;63.90
71879;DHT22;59755;43.834;4.364;2022-09-12T16:25:58;27.00;64.00
71879;DHT22;59755;43.834;4.364;2022-09-12T16:28:25;26.90;64.10
71879;DHT22;59755;43.834;4.364;2022-09-12T16:30:58;26.90;63.90
71879;DHT22;59755;43.834;4.364;2022-09-12T16:33:24;26.90;64.00
71879;DHT22;59755;43.834;4.364;2022-09-12T16:35:50;27.00;63.80
71879;DHT22;59755;43.834;4.364;2022-09-12T16:38:20;27.00;63.90
71879;DHT22;59755;43.834;4.364;2022-09-12T16:40:46;26.90;64.30
71879;DHT22;59755;43.834;4.364;2022-09-12T16:43:12;26.90;64.60
71879;DHT22;59755;43.834;4.364;2022-09-12T16:45:42;26.90;64.40
71879;DHT22;59755;43.834;4.364;2022-09-12T16:48:08;26.80;64.40
71879;DHT22;59755;43.834;4.364;2022-09-12T16:50:33;26.80;64.80
71879;DHT22;59755;43.834;4.364;2022-09-12T16:52:59;26.70;65.10
71879;DHT22;59755;43.834;4.364;2022-09-12T16:55:25;26.70;65.20
71879;DHT22;59755;43.834;4.364;2022-09-12T16:57:53;26.50;65.90
71879;DHT22;59755;43.834;4.364;2022-09-12T17:00:19;26.50;65.80
71879;DHT22;59755;43.834;4.364;2022-09-12T17:02:45;26.40;65.90
71879;DHT22;59755;43.834;4.364;2022-09-12T17:05:12;26.40;66.20
71879;DHT22;59755;43.834;4.364;2022-09-12T17:07:40;26.30;66.70
71879;DHT22;59755;43.834;4.364;2022-09-12T17:10:06;26.30;67.60
71879;DHT22;59755;43.834;4.364;2022-09-12T17:12:32;26.20;68.20
71879;DHT22;59755;43.834;4.364;2022-09-12T17:14:58;26.20;68.30
71879;DHT22;59755;43.834;4.364;2022-09-12T17:17:24;26.10;68.80
71879;DHT22;59755;43.834;4.364;2022-09-12T17:19:50;26.00;69.30
71879;DHT22;59755;43.834;4.364;2022-09-12T17:22:16;26.00;69.60
71879;DHT22;59755;43.834;4.364;2022-09-12T17:24:42;25.90;70.20
71879;DHT22;59755;43.834;4.364;2022-09-12T17:27:07;25.90;70.30
71879;DHT22;59755;43.834;4.364;2022-09-12T17:29:33;25.90;70.80
71879;DHT22;59755;43.834;4.364;2022-09-12T17:32:01;25.80;71.30
71879;DHT22;59755;43.834;4.364;2022-09-12T17:34:27;25.60;71.70
71879;DHT22;59755;43.834;4.364;2022-09-12T17:36:52;25.60;71.90
71879;DHT22;59755;43.834;4.364;2022-09-12T17:39:18;25.50;72.00
71879;DHT22;59755;43.834;4.364;2022-09-12T17:41:44;25.50;72.20
71879;DHT22;59755;43.834;4.364;2022-09-12T17:44:12;25.50;72.30
71879;DHT22;59755;43.834;4.364;2022-09-12T17:46:39;25.50;72.40
71879;DHT22;59755;43.834;4.364;2022-09-12T17:49:07;25.40;72.90
71879;DHT22;59755;43.834;4.364;2022-09-12T17:51:35;25.40;72.90
71879;DHT22;59755;43.834;4.364;2022-09-12T17:56:29;25.30;72.70
71879;DHT22;59755;43.834;4.364;2022-09-12T17:58:56;25.30;73.10
71879;DHT22;59755;43.834;4.364;2022-09-12T18:01:23;25.30;73.50
71879;DHT22;59755;43.834;4.364;2022-09-12T18:04:08;25.20;73.90
71879;DHT22;59755;43.834;4.364;2022-09-12T18:06:35;25.20;73.90
71879;DHT22;59755;43.834;4.364;2022-09-12T18:09:03;25.10;74.10
71879;DHT22;59755;43.834;4.364;2022-09-12T18:11:28;25.10;74.30
71879;DHT22;59755;43.834;4.364;2022-09-12T18:13:54;25.10;74.90
71879;DHT22;59755;43.834;4.364;2022-09-12T18:16:21;25.00;75.10
71879;DHT22;59755;43.834;4.364;2022-09-12T18:18:47;25.00;75.30
71879;DHT22;59755;43.834;4.364;2022-09-12T18:21:15;24.90;75.90
71879;DHT22;59755;43.834;4.364;2022-09-12T18:23:41;24.90;76.30
71879;DHT22;59755;43.834;4.364;2022-09-12T18:26:09;24.80;76.60
71879;DHT22;59755;43.834;4.364;2022-09-12T18:28:38;24.80;76.90
71879;DHT22;59755;43.834;4.364;2022-09-12T18:31:12;24.80;76.90
71879;DHT22;59755;43.834;4.364;2022-09-12T18:33:38;24.80;76.90
71879;DHT22;59755;43.834;4.364;2022-09-12T18:36:05;24.70;77.20
71879;DHT22;59755;43.834;4.364;2022-09-12T18:38:31;24.70;77.50
71879;DHT22;59755;43.834;4.364;2022-09-12T18:43:28;24.60;77.70
71879;DHT22;59755;43.834;4.364;2022-09-12T18:45:54;24.60;77.70
71879;DHT22;59755;43.834;4.364;2022-09-12T18:48:19;24.60;77.40
71879;DHT22;59755;43.834;4.364;2022-09-12T18:50:45;24.60;77.20
71879;DHT22;59755;43.834;4.364;2022-09-12T18:53:11;24.60;77.40
71879;DHT22;59755;43.834;4.364;2022-09-12T18:55:36;24.60;77.70
71879;DHT22;59755;43.834;4.364;2022-09-12T18:58:02;24.50;78.00
71879;DHT22;59755;43.834;4.364;2022-09-12T19:00:28;24.50;77.80
71879;DHT22;59755;43.834;4.364;2022-09-12T19:02:53;24.50;78.00
71879;DHT22;59755;43.834;4.364;2022-09-12T19:05:19;24.50;77.50
71879;DHT22;59755;43.834;4.364;2022-09-12T19:07:44;24.50;77.70
71879;DHT22;59755;43.834;4.364;2022-09-12T19:10:10;24.40;77.70
71879;DHT22;59755;43.834;4.364;2022-09-12T19:12:36;24.40;77.60
71879;DHT22;59755;43.834;4.364;2022-09-12T19:15:02;24.40;78.00
71879;DHT22;59755;43.834;4.364;2022-09-12T19:17:28;24.40;77.80
71879;DHT22;59755;43.834;4.364;2022-09-12T19:19:54;24.40;77.50
71879;DHT22;59755;43.834;4.364;2022-09-12T19:22:19;24.40;77.70
71879;DHT22;59755;43.834;4.364;2022-09-12T19:24:45;24.40;77.90
71879;DHT22;59755;43.834;4.364;2022-09-12T19:27:11;24.30;78.20